sensor_id;sensor_type;location;lat;lon;timestamp;P1;durP1;ratioP1;P2;durP2;ratioP2
66856;SDS011;53766;50.280;19.160;2023-05-29T00:01:05;7.43;;;3.17;;
66856;SDS011;53766;50.280;19.160;2023-05-29T00:03:35;6.35;;;2.97;;
66856;SDS011;53766;50.280;19.160;2023-05-29T00:06:03;7.00;;;3.03;;
66856;SDS011;53766;50.280;19.160;2023-05-29T00:08:32;6.03;;;3.10;;
66856;SDS011;53766;50.280;19.160;2023-05-29T00:11:00;5.63;;;2.83;;
66856;SDS011;53766;50.280;19.160;2023-05-29T00:13:27;5.78;;;3.28;;
66856;SDS011;53766;50.280;19.160;2023-05-29T00:15:55;7.35;;;3.20;;
66856;SDS011;53766;50.280;19.160;2023-05-29T00:18:23;5.85;;;2.90;;
66856;SDS011;53766;50.280;19.160;2023-05-29T00:20:51;6.53;;;3.13;;
66856;SDS011;53766;50.280;19.160;2023-05-29T00:23:20;5.95;;;3.30;;
66856;SDS011;53766;50.280;19.160;2023-05-29T00:25:48;6.45;;;3.58;;
66856;SDS011;53766;50.280;19.160;2023-05-29T00:28:16;7.57;;;3.15;;
66856;SDS011;53766;50.280;19.160;2023-05-29T00:30:43;7.63;;;3.13;;
66856;SDS011;53766;50.280;19.160;2023-05-29T00:33:11;7.30;;;3.30;;
66856;SDS011;53766;50.280;19.160;2023-05-29T00:35:38;5.72;;;3.42;;
66856;SDS011;53766;50.280;19.160;2023-05-29T00:38:06;7.78;;;3.15;;
66856;SDS011;53766;50.280;19.160;2023-05-29T00:40:34;8.10;;;3.10;;
66856;SDS011;53766;50.280;19.160;2023-05-29T00:43:01;7.32;;;3.58;;
66856;SDS011;53766;50.280;19.160;2023-05-29T00:45:29;6.13;;;3.17;;
66856;SDS011;53766;50.280;19.160;2023-05-29T00:47:57;7.55;;;3.40;;
66856;SDS011;53766;50.280;19.160;2023-05-29T00:50:25;7.25;;;3.70;;
66856;SDS011;53766;50.280;19.160;2023-05-29T00:52:53;6.88;;;3.10;;
66856;SDS011;53766;50.280;19.160;2023-05-29T00:55:21;6.45;;;3.40;;
66856;SDS011;53766;50.280;19.160;2023-05-29T00:57:49;6.97;;;3.50;;
66856;SDS011;53766;50.280;19.160;2023-05-29T01:00:17;8.40;;;3.53;;
66856;SDS011;53766;50.280;19.160;2023-05-29T01:02:45;5.93;;;3.28;;
66856;SDS011;53766;50.280;19.160;2023-05-29T01:05:14;6.30;;;3.60;;
66856;SDS011;53766;50.280;19.160;2023-05-29T01:07:42;8.80;;;3.67;;
66856;SDS011;53766;50.280;19.160;2023-05-29T01:10:10;5.03;;;3.30;;
66856;SDS011;53766;50.280;19.160;2023-05-29T01:12:40;6.25;;;3.55;;
66856;SDS011;53766;50.280;19.160;2023-05-29T01:21:00;5.05;;;3.20;;
66856;SDS011;53766;50.280;19.160;2023-05-29T01:31:53;5.97;;;3.22;;
66856;SDS011;53766;50.280;19.160;2023-05-29T01:34:21;5.72;;;3.60;;
66856;SDS011;53766;50.280;19.160;2023-05-29T01:36:49;7.90;;;3.60;;
66856;SDS011;53766;50.280;19.160;2023-05-29T01:39:16;6.13;;;3.33;;
66856;SDS011;53766;50.280;19.160;2023-05-29T01:41:46;7.82;;;3.78;;
66856;SDS011;53766;50.280;19.160;2023-05-29T01:44:14;7.07;;;4.45;;
66856;SDS011;53766;50.280;19.160;2023-05-29T01:46:44;6.30;;;3.47;;
66856;SDS011;53766;50.280;19.160;2023-05-29T01:49:12;8.30;;;3.25;;
66856;SDS011;53766;50.280;19.160;2023-05-29T01:51:41;7.47;;;3.70;;
66856;SDS011;53766;50.280;19.160;2023-05-29T01:54:08;7.60;;;3.50;;
66856;SDS011;53766;50.280;19.160;2023-05-29T01:56:36;6.43;;;3.55;;
66856;SDS011;53766;50.280;19.160;2023-05-29T01:59:04;6.53;;;3.50;;
66856;SDS011;53766;50.280;19.160;2023-05-29T02:01:33;8.52;;;3.42;;
66856;SDS011;53766;50.280;19.160;2023-05-29T02:04:00;6.03;;;3.67;;
66856;SDS011;53766;50.280;19.160;2023-05-29T02:06:28;5.72;;;3.28;;
66856;SDS011;53766;50.280;19.160;2023-05-29T02:08:55;6.32;;;3.63;;
66856;SDS011;53766;50.280;19.160;2023-05-29T02:11:23;6.18;;;3.30;;
66856;SDS011;53766;50.280;19.160;2023-05-29T02:13:51;6.80;;;3.58;;
66856;SDS011;53766;50.280;19.160;2023-05-29T02:16:19;8.00;;;3.92;;
66856;SDS011;53766;50.280;19.160;2023-05-29T02:18:47;5.90;;;3.60;;
66856;SDS011;53766;50.280;19.160;2023-05-29T02:21:15;6.65;;;3.53;;
66856;SDS011;53766;50.280;19.160;2023-05-29T02:23:43;5.95;;;3.55;;
66856;SDS011;53766;50.280;19.160;2023-05-29T02:26:12;6.78;;;3.58;;
66856;SDS011;53766;50.280;19.160;2023-05-29T02:28:40;6.90;;;3.70;;
66856;SDS011;53766;50.280;19.160;2023-05-29T02:31:08;7.38;;;3.72;;
66856;SDS011;53766;50.280;19.160;2023-05-29T02:33:35;5.22;;;3.15;;
66856;SDS011;53766;50.280;19.160;2023-05-29T02:36:03;10.60;;;3.72;;
66856;SDS011;53766;50.280;19.160;2023-05-29T02:38:30;10.48;;;3.67;;
66856;SDS011;53766;50.280;19.160;2023-05-29T02:40:58;7.43;;;3.72;;
66856;SDS011;53766;50.280;19.160;2023-05-29T02:43:25;8.95;;;3.70;;
66856;SDS011;53766;50.280;19.160;2023-05-29T02:45:53;13.45;;;4.32;;
66856;SDS011;53766;50.280;19.160;2023-05-29T02:48:20;8.27;;;3.85;;
66856;SDS011;53766;50.280;19.160;2023-05-29T02:50:48;7.50;;;3.75;;
66856;SDS011;53766;50.280;19.160;2023-05-29T02:53:15;8.10;;;3.85;;
66856;SDS011;53766;50.280;19.160;2023-05-29T02:55:43;10.40;;;3.70;;
66856;SDS011;53766;50.280;19.160;2023-05-29T02:58:11;12.05;;;3.72;;
66856;SDS011;53766;50.280;19.160;2023-05-29T03:00:38;10.73;;;4.00;;
66856;SDS011;53766;50.280;19.160;2023-05-29T03:03:08;10.35;;;4.18;;
66856;SDS011;53766;50.280;19.160;2023-05-29T03:05:36;8.38;;;4.00;;
66856;SDS011;53766;50.280;19.160;2023-05-29T03:08:03;8.65;;;4.03;;
66856;SDS011;53766;50.280;19.160;2023-05-29T03:10:31;10.15;;;4.03;;
66856;SDS011;53766;50.280;19.160;2023-05-29T03:12:58;7.18;;;4.00;;
66856;SDS011;53766;50.280;19.160;2023-05-29T03:15:26;7.35;;;3.95;;
66856;SDS011;53766;50.280;19.160;2023-05-29T03:17:53;6.97;;;3.78;;
66856;SDS011;53766;50.280;19.160;2023-05-29T03:20:21;9.00;;;3.90;;
66856;SDS011;53766;50.280;19.160;2023-05-29T03:22:48;7.97;;;3.92;;
66856;SDS011;53766;50.280;19.160;2023-05-29T03:25:15;11.38;;;4.20;;
66856;SDS011;53766;50.280;19.160;2023-05-29T03:27:43;7.43;;;4.05;;
66856;SDS011;53766;50.280;19.160;2023-05-29T03:30:11;8.13;;;3.78;;
66856;SDS011;53766;50.280;19.160;2023-05-29T03:32:38;7.30;;;3.92;;
66856;SDS011;53766;50.280;19.160;2023-05-29T03:35:06;10.75;;;3.90;;
66856;SDS011;53766;50.280;19.160;2023-05-29T03:37:34;8.80;;;4.25;;
66856;SDS011;53766;50.280;19.160;2023-05-29T03:40:02;8.10;;;4.13;;
66856;SDS011;53766;50.280;19.160;2023-05-29T03:42:31;10.35;;;4.20;;
66856;SDS011;53766;50.280;19.160;2023-05-29T03:44:58;9.88;;;4.43;;
66856;SDS011;53766;50.280;19.160;2023-05-29T03:47:26;9.45;;;4.70;;
66856;SDS011;53766;50.280;19.160;2023-05-29T03:49:54;8.20;;;3.92;;
66856;SDS011;53766;50.280;19.160;2023-05-29T03:52:21;8.93;;;4.00;;
66856;SDS011;53766;50.280;19.160;2023-05-29T03:54:49;7.88;;;4.15;;
66856;SDS011;53766;50.280;19.160;2023-05-29T03:57:16;9.25;;;4.28;;
66856;SDS011;53766;50.280;19.160;2023-05-29T03:59:44;8.70;;;4.40;;
66856;SDS011;53766;50.280;19.160;2023-05-29T04:02:11;6.85;;;3.80;;
66856;SDS011;53766;50.280;19.160;2023-05-29T04:04:41;7.72;;;4.10;;
66856;SDS011;53766;50.280;19.160;2023-05-29T04:07:08;6.53;;;3.95;;
66856;SDS011;53766;50.280;19.160;2023-05-29T04:09:36;6.47;;;3.95;;
66856;SDS011;53766;50.280;19.160;2023-05-29T04:12:03;7.63;;;3.63;;
66856;SDS011;53766;50.280;19.160;2023-05-29T04:14:32;10.25;;;4.30;;
66856;SDS011;53766;50.280;19.160;2023-05-29T04:17:00;6.57;;;3.65;;
66856;SDS011;53766;50.280;19.160;2023-05-29T04:19:27;6.50;;;3.83;;
66856;SDS011;53766;50.280;19.160;2023-05-29T04:21:55;7.03;;;4.40;;
66856;SDS011;53766;50.280;19.160;2023-05-29T04:24:22;8.88;;;3.95;;
66856;SDS011;53766;50.280;19.160;2023-05-29T04:26:51;7.97;;;3.80;;
66856;SDS011;53766;50.280;19.160;2023-05-29T04:29:19;10.27;;;4.00;;
66856;SDS011;53766;50.280;19.160;2023-05-29T04:31:47;10.32;;;4.10;;
66856;SDS011;53766;50.280;19.160;2023-05-29T04:34:14;6.22;;;3.20;;
66856;SDS011;53766;50.280;19.160;2023-05-29T04:36:44;7.78;;;4.15;;
66856;SDS011;53766;50.280;19.160;2023-05-29T04:39:13;8.20;;;3.80;;
66856;SDS011;53766;50.280;19.160;2023-05-29T04:41:41;8.27;;;3.63;;
66856;SDS011;53766;50.280;19.160;2023-05-29T04:44:08;7.22;;;3.63;;
66856;SDS011;53766;50.280;19.160;2023-05-29T04:46:38;8.20;;;4.00;;
66856;SDS011;53766;50.280;19.160;2023-05-29T04:49:06;6.80;;;3.65;;
66856;SDS011;53766;50.280;19.160;2023-05-29T04:51:33;9.85;;;4.00;;
66856;SDS011;53766;50.280;19.160;2023-05-29T04:54:01;6.00;;;3.60;;
66856;SDS011;53766;50.280;19.160;2023-05-29T04:56:28;5.80;;;3.45;;
66856;SDS011;53766;50.280;19.160;2023-05-29T04:58:55;8.40;;;4.30;;
66856;SDS011;53766;50.280;19.160;2023-05-29T05:01:25;5.57;;;3.55;;
66856;SDS011;53766;50.280;19.160;2023-05-29T05:03:53;7.32;;;3.58;;
66856;SDS011;53766;50.280;19.160;2023-05-29T05:06:23;7.75;;;4.00;;
66856;SDS011;53766;50.280;19.160;2023-05-29T05:08:52;6.93;;;4.10;;
66856;SDS011;53766;50.280;19.160;2023-05-29T05:11:23;6.38;;;3.50;;
66856;SDS011;53766;50.280;19.160;2023-05-29T05:13:50;6.90;;;3.83;;
66856;SDS011;53766;50.280;19.160;2023-05-29T05:16:18;7.55;;;3.65;;
66856;SDS011;53766;50.280;19.160;2023-05-29T05:18:46;6.22;;;3.60;;
66856;SDS011;53766;50.280;19.160;2023-05-29T05:21:13;7.25;;;3.92;;
66856;SDS011;53766;50.280;19.160;2023-05-29T05:23:40;9.18;;;4.13;;
66856;SDS011;53766;50.280;19.160;2023-05-29T05:26:24;7.32;;;3.63;;
66856;SDS011;53766;50.280;19.160;2023-05-29T05:28:53;7.63;;;3.92;;
66856;SDS011;53766;50.280;19.160;2023-05-29T05:31:21;5.72;;;3.38;;
66856;SDS011;53766;50.280;19.160;2023-05-29T05:33:49;6.75;;;3.70;;
66856;SDS011;53766;50.280;19.160;2023-05-29T05:36:16;9.20;;;3.90;;
66856;SDS011;53766;50.280;19.160;2023-05-29T05:38:44;6.57;;;3.58;;
66856;SDS011;53766;50.280;19.160;2023-05-29T05:41:12;7.80;;;4.25;;
66856;SDS011;53766;50.280;19.160;2023-05-29T05:43:40;7.50;;;3.88;;
66856;SDS011;53766;50.280;19.160;2023-05-29T05:46:07;9.10;;;3.88;;
66856;SDS011;53766;50.280;19.160;2023-05-29T05:48:35;7.88;;;3.78;;
66856;SDS011;53766;50.280;19.160;2023-05-29T05:51:02;8.18;;;4.15;;
66856;SDS011;53766;50.280;19.160;2023-05-29T05:53:30;9.30;;;4.00;;
66856;SDS011;53766;50.280;19.160;2023-05-29T05:55:57;10.95;;;4.20;;
66856;SDS011;53766;50.280;19.160;2023-05-29T05:58:25;7.93;;;4.25;;
66856;SDS011;53766;50.280;19.160;2023-05-29T06:00:52;13.00;;;4.25;;
66856;SDS011;53766;50.280;19.160;2023-05-29T06:03:20;10.23;;;4.47;;
66856;SDS011;53766;50.280;19.160;2023-05-29T06:05:48;10.23;;;4.13;;
66856;SDS011;53766;50.280;19.160;2023-05-29T06:08:17;9.48;;;4.32;;
66856;SDS011;53766;50.280;19.160;2023-05-29T06:10:45;10.05;;;3.70;;
66856;SDS011;53766;50.280;19.160;2023-05-29T06:13:12;9.10;;;3.78;;
66856;SDS011;53766;50.280;19.160;2023-05-29T06:15:40;8.32;;;4.20;;
66856;SDS011;53766;50.280;19.160;2023-05-29T06:18:08;11.23;;;4.28;;
66856;SDS011;53766;50.280;19.160;2023-05-29T06:20:35;12.65;;;4.20;;
66856;SDS011;53766;50.280;19.160;2023-05-29T06:23:03;11.30;;;4.30;;
66856;SDS011;53766;50.280;19.160;2023-05-29T06:25:31;9.18;;;3.75;;
66856;SDS011;53766;50.280;19.160;2023-05-29T06:28:02;10.05;;;4.25;;
66856;SDS011;53766;50.280;19.160;2023-05-29T06:30:29;8.95;;;3.90;;
66856;SDS011;53766;50.280;19.160;2023-05-29T06:32:58;10.40;;;4.18;;
66856;SDS011;53766;50.280;19.160;2023-05-29T06:35:25;8.48;;;4.20;;
66856;SDS011;53766;50.280;19.160;2023-05-29T06:37:53;10.25;;;3.83;;
66856;SDS011;53766;50.280;19.160;2023-05-29T06:40:20;9.95;;;4.00;;
66856;SDS011;53766;50.280;19.160;2023-05-29T06:42:48;9.70;;;3.60;;
66856;SDS011;53766;50.280;19.160;2023-05-29T06:45:15;8.32;;;3.88;;
66856;SDS011;53766;50.280;19.160;2023-05-29T06:47:43;9.55;;;4.63;;
66856;SDS011;53766;50.280;19.160;2023-05-29T06:50:11;16.48;;;4.18;;
66856;SDS011;53766;50.280;19.160;2023-05-29T06:52:39;10.50;;;4.20;;
66856;SDS011;53766;50.280;19.160;2023-05-29T06:55:07;10.20;;;4.50;;
66856;SDS011;53766;50.280;19.160;2023-05-29T06:57:35;11.82;;;4.97;;
66856;SDS011;53766;50.280;19.160;2023-05-29T07:00:03;9.93;;;4.18;;
66856;SDS011;53766;50.280;19.160;2023-05-29T07:02:33;11.10;;;4.72;;
66856;SDS011;53766;50.280;19.160;2023-05-29T07:05:00;10.27;;;4.93;;
66856;SDS011;53766;50.280;19.160;2023-05-29T07:07:28;13.68;;;5.60;;
66856;SDS011;53766;50.280;19.160;2023-05-29T07:09:55;16.38;;;5.47;;
66856;SDS011;53766;50.280;19.160;2023-05-29T07:12:23;14.80;;;5.18;;
66856;SDS011;53766;50.280;19.160;2023-05-29T07:14:50;16.02;;;5.80;;
66856;SDS011;53766;50.280;19.160;2023-05-29T07:17:18;19.58;;;5.63;;
66856;SDS011;53766;50.280;19.160;2023-05-29T07:19:45;14.27;;;5.82;;
66856;SDS011;53766;50.280;19.160;2023-05-29T07:22:13;12.75;;;5.85;;
66856;SDS011;53766;50.280;19.160;2023-05-29T07:24:41;17.10;;;5.82;;
66856;SDS011;53766;50.280;19.160;2023-05-29T07:27:08;16.02;;;6.18;;
66856;SDS011;53766;50.280;19.160;2023-05-29T07:29:36;15.57;;;6.32;;
66856;SDS011;53766;50.280;19.160;2023-05-29T07:32:03;15.02;;;5.30;;
66856;SDS011;53766;50.280;19.160;2023-05-29T07:34:31;14.40;;;5.78;;
66856;SDS011;53766;50.280;19.160;2023-05-29T07:39:31;12.20;;;5.45;;
66856;SDS011;53766;50.280;19.160;2023-05-29T07:41:59;18.63;;;5.97;;
66856;SDS011;53766;50.280;19.160;2023-05-29T07:44:30;15.55;;;5.65;;
66856;SDS011;53766;50.280;19.160;2023-05-29T07:46:58;12.70;;;5.82;;
66856;SDS011;53766;50.280;19.160;2023-05-29T07:49:25;15.00;;;5.35;;
66856;SDS011;53766;50.280;19.160;2023-05-29T07:51:53;14.10;;;5.50;;
66856;SDS011;53766;50.280;19.160;2023-05-29T07:54:20;13.00;;;5.35;;
66856;SDS011;53766;50.280;19.160;2023-05-29T07:56:48;11.80;;;5.28;;
66856;SDS011;53766;50.280;19.160;2023-05-29T07:59:17;11.15;;;4.90;;
66856;SDS011;53766;50.280;19.160;2023-05-29T08:01:45;11.05;;;4.72;;
66856;SDS011;53766;50.280;19.160;2023-05-29T08:04:14;12.27;;;4.78;;
66856;SDS011;53766;50.280;19.160;2023-05-29T08:06:42;11.45;;;4.88;;
66856;SDS011;53766;50.280;19.160;2023-05-29T08:09:10;9.77;;;4.97;;
66856;SDS011;53766;50.280;19.160;2023-05-29T08:11:39;12.40;;;4.53;;
66856;SDS011;53766;50.280;19.160;2023-05-29T08:14:06;11.05;;;4.70;;
66856;SDS011;53766;50.280;19.160;2023-05-29T08:16:34;11.93;;;4.95;;
66856;SDS011;53766;50.280;19.160;2023-05-29T08:19:02;10.35;;;4.47;;
66856;SDS011;53766;50.280;19.160;2023-05-29T08:21:30;12.35;;;4.68;;
66856;SDS011;53766;50.280;19.160;2023-05-29T08:23:58;10.18;;;4.10;;
66856;SDS011;53766;50.280;19.160;2023-05-29T08:26:26;11.60;;;5.20;;
66856;SDS011;53766;50.280;19.160;2023-05-29T08:28:54;13.15;;;4.10;;
66856;SDS011;53766;50.280;19.160;2023-05-29T08:31:22;7.60;;;3.72;;
66856;SDS011;53766;50.280;19.160;2023-05-29T08:33:53;10.23;;;4.25;;
66856;SDS011;53766;50.280;19.160;2023-05-29T08:36:21;8.95;;;4.00;;
66856;SDS011;53766;50.280;19.160;2023-05-29T08:38:49;9.20;;;3.92;;
66856;SDS011;53766;50.280;19.160;2023-05-29T08:41:17;10.82;;;4.18;;
66856;SDS011;53766;50.280;19.160;2023-05-29T08:43:52;9.32;;;3.83;;
66856;SDS011;53766;50.280;19.160;2023-05-29T08:46:20;9.10;;;3.97;;
66856;SDS011;53766;50.280;19.160;2023-05-29T08:48:48;6.55;;;3.47;;
66856;SDS011;53766;50.280;19.160;2023-05-29T08:51:19;7.55;;;3.72;;
66856;SDS011;53766;50.280;19.160;2023-05-29T08:53:51;8.70;;;4.13;;
66856;SDS011;53766;50.280;19.160;2023-05-29T08:56:19;9.05;;;3.92;;
66856;SDS011;53766;50.280;19.160;2023-05-29T08:59:01;6.10;;;3.72;;
66856;SDS011;53766;50.280;19.160;2023-05-29T09:01:34;8.95;;;4.03;;
66856;SDS011;53766;50.280;19.160;2023-05-29T09:04:02;13.50;;;4.07;;
66856;SDS011;53766;50.280;19.160;2023-05-29T09:06:30;10.60;;;4.10;;
66856;SDS011;53766;50.280;19.160;2023-05-29T09:08:57;7.65;;;4.07;;
66856;SDS011;53766;50.280;19.160;2023-05-29T09:11:25;8.35;;;3.83;;
66856;SDS011;53766;50.280;19.160;2023-05-29T09:13:53;10.05;;;3.70;;
66856;SDS011;53766;50.280;19.160;2023-05-29T09:16:20;9.32;;;3.63;;
66856;SDS011;53766;50.280;19.160;2023-05-29T09:18:49;8.32;;;3.33;;
66856;SDS011;53766;50.280;19.160;2023-05-29T09:21:26;9.57;;;3.92;;
66856;SDS011;53766;50.280;19.160;2023-05-29T09:23:56;11.25;;;3.90;;
66856;SDS011;53766;50.280;19.160;2023-05-29T09:26:30;8.10;;;3.72;;
66856;SDS011;53766;50.280;19.160;2023-05-29T09:28:58;8.43;;;3.75;;
66856;SDS011;53766;50.280;19.160;2023-05-29T09:31:26;8.05;;;3.58;;
66856;SDS011;53766;50.280;19.160;2023-05-29T09:33:53;12.20;;;3.63;;
66856;SDS011;53766;50.280;19.160;2023-05-29T09:36:21;10.63;;;3.67;;
66856;SDS011;53766;50.280;19.160;2023-05-29T09:38:49;6.18;;;3.13;;
66856;SDS011;53766;50.280;19.160;2023-05-29T09:41:25;9.07;;;3.58;;
66856;SDS011;53766;50.280;19.160;2023-05-29T09:43:52;8.38;;;3.30;;
66856;SDS011;53766;50.280;19.160;2023-05-29T09:46:22;6.22;;;3.30;;
66856;SDS011;53766;50.280;19.160;2023-05-29T09:48:49;11.00;;;3.75;;
66856;SDS011;53766;50.280;19.160;2023-05-29T09:51:23;8.63;;;3.75;;
66856;SDS011;53766;50.280;19.160;2023-05-29T09:53:53;8.43;;;3.47;;
66856;SDS011;53766;50.280;19.160;2023-05-29T09:56:22;8.68;;;3.70;;
66856;SDS011;53766;50.280;19.160;2023-05-29T09:58:52;8.90;;;3.55;;
66856;SDS011;53766;50.280;19.160;2023-05-29T10:01:20;7.55;;;3.28;;
66856;SDS011;53766;50.280;19.160;2023-05-29T10:03:49;8.70;;;3.58;;
66856;SDS011;53766;50.280;19.160;2023-05-29T10:06:18;8.40;;;3.35;;
66856;SDS011;53766;50.280;19.160;2023-05-29T10:08:47;7.25;;;3.63;;
66856;SDS011;53766;50.280;19.160;2023-05-29T10:11:21;12.05;;;4.03;;
66856;SDS011;53766;50.280;19.160;2023-05-29T10:13:53;12.38;;;3.95;;
66856;SDS011;53766;50.280;19.160;2023-05-29T10:16:24;12.27;;;3.85;;
66856;SDS011;53766;50.280;19.160;2023-05-29T10:18:55;6.13;;;3.30;;
66856;SDS011;53766;50.280;19.160;2023-05-29T10:21:24;11.77;;;3.88;;
66856;SDS011;53766;50.280;19.160;2023-05-29T10:23:54;5.80;;;3.17;;
66856;SDS011;53766;50.280;19.160;2023-05-29T10:26:25;8.25;;;3.58;;
66856;SDS011;53766;50.280;19.160;2023-05-29T10:37:40;6.13;;;3.40;;
66856;SDS011;53766;50.280;19.160;2023-05-29T10:40:12;8.15;;;3.55;;
66856;SDS011;53766;50.280;19.160;2023-05-29T10:42:47;5.72;;;3.33;;
66856;SDS011;53766;50.280;19.160;2023-05-29T10:50:38;6.35;;;3.22;;
66856;SDS011;53766;50.280;19.160;2023-05-29T10:53:14;9.90;;;3.78;;
66856;SDS011;53766;50.280;19.160;2023-05-29T10:55:43;6.03;;;3.28;;
66856;SDS011;53766;50.280;19.160;2023-05-29T10:58:12;4.80;;;3.05;;
66856;SDS011;53766;50.280;19.160;2023-05-29T11:00:41;12.27;;;3.60;;
66856;SDS011;53766;50.280;19.160;2023-05-29T11:03:09;5.15;;;3.15;;
66856;SDS011;53766;50.280;19.160;2023-05-29T11:05:55;7.88;;;3.38;;
66856;SDS011;53766;50.280;19.160;2023-05-29T11:08:43;7.18;;;3.33;;
66856;SDS011;53766;50.280;19.160;2023-05-29T11:11:15;7.55;;;2.92;;
66856;SDS011;53766;50.280;19.160;2023-05-29T11:13:56;6.45;;;3.20;;
66856;SDS011;53766;50.280;19.160;2023-05-29T11:19:04;7.20;;;3.13;;
66856;SDS011;53766;50.280;19.160;2023-05-29T11:24:23;7.90;;;3.45;;
66856;SDS011;53766;50.280;19.160;2023-05-29T11:26:52;8.40;;;3.22;;
66856;SDS011;53766;50.280;19.160;2023-05-29T11:29:22;8.93;;;3.53;;
66856;SDS011;53766;50.280;19.160;2023-05-29T11:32:03;6.65;;;3.10;;
66856;SDS011;53766;50.280;19.160;2023-05-29T11:34:32;7.07;;;2.95;;
66856;SDS011;53766;50.280;19.160;2023-05-29T11:37:00;7.82;;;3.60;;
66856;SDS011;53766;50.280;19.160;2023-05-29T11:39:29;8.07;;;3.67;;
66856;SDS011;53766;50.280;19.160;2023-05-29T11:41:58;9.57;;;3.05;;
66856;SDS011;53766;50.280;19.160;2023-05-29T11:44:27;5.80;;;3.15;;
66856;SDS011;53766;50.280;19.160;2023-05-29T11:47:01;8.50;;;3.40;;
66856;SDS011;53766;50.280;19.160;2023-05-29T11:49:31;4.80;;;2.85;;
66856;SDS011;53766;50.280;19.160;2023-05-29T11:54:43;6.88;;;3.28;;
66856;SDS011;53766;50.280;19.160;2023-05-29T11:57:17;5.75;;;3.10;;
66856;SDS011;53766;50.280;19.160;2023-05-29T11:59:49;6.70;;;3.35;;
66856;SDS011;53766;50.280;19.160;2023-05-29T12:02:18;4.68;;;2.92;;
66856;SDS011;53766;50.280;19.160;2023-05-29T12:04:59;6.05;;;2.97;;
66856;SDS011;53766;50.280;19.160;2023-05-29T12:07:27;6.00;;;3.33;;
66856;SDS011;53766;50.280;19.160;2023-05-29T12:09:55;8.38;;;3.58;;
66856;SDS011;53766;50.280;19.160;2023-05-29T12:12:24;8.10;;;3.40;;
66856;SDS011;53766;50.280;19.160;2023-05-29T12:14:54;6.47;;;3.25;;
66856;SDS011;53766;50.280;19.160;2023-05-29T12:17:22;5.88;;;3.17;;
66856;SDS011;53766;50.280;19.160;2023-05-29T12:19:49;5.90;;;3.45;;
66856;SDS011;53766;50.280;19.160;2023-05-29T12:22:17;6.68;;;3.28;;
66856;SDS011;53766;50.280;19.160;2023-05-29T12:24:44;6.53;;;3.45;;
66856;SDS011;53766;50.280;19.160;2023-05-29T12:27:12;8.38;;;3.20;;
66856;SDS011;53766;50.280;19.160;2023-05-29T12:29:39;7.50;;;2.67;;
66856;SDS011;53766;50.280;19.160;2023-05-29T12:32:09;8.65;;;3.20;;
66856;SDS011;53766;50.280;19.160;2023-05-29T12:34:37;8.02;;;3.67;;
66856;SDS011;53766;50.280;19.160;2023-05-29T12:37:07;6.68;;;3.25;;
66856;SDS011;53766;50.280;19.160;2023-05-29T12:39:40;7.55;;;3.33;;
66856;SDS011;53766;50.280;19.160;2023-05-29T12:42:07;6.88;;;3.28;;
66856;SDS011;53766;50.280;19.160;2023-05-29T12:44:37;4.68;;;2.75;;
66856;SDS011;53766;50.280;19.160;2023-05-29T12:47:05;7.03;;;3.38;;
66856;SDS011;53766;50.280;19.160;2023-05-29T12:49:35;7.72;;;3.00;;
66856;SDS011;53766;50.280;19.160;2023-05-29T12:52:06;7.32;;;3.58;;
66856;SDS011;53766;50.280;19.160;2023-05-29T12:54:39;6.38;;;3.30;;
66856;SDS011;53766;50.280;19.160;2023-05-29T12:57:06;8.75;;;3.15;;
66856;SDS011;53766;50.280;19.160;2023-05-29T12:59:34;8.85;;;3.83;;
66856;SDS011;53766;50.280;19.160;2023-05-29T13:02:01;7.05;;;3.40;;
66856;SDS011;53766;50.280;19.160;2023-05-29T13:04:29;6.20;;;3.30;;
66856;SDS011;53766;50.280;19.160;2023-05-29T13:06:56;6.25;;;3.13;;
66856;SDS011;53766;50.280;19.160;2023-05-29T13:09:24;5.32;;;3.20;;
66856;SDS011;53766;50.280;19.160;2023-05-29T13:11:51;6.57;;;3.20;;
66856;SDS011;53766;50.280;19.160;2023-05-29T13:14:20;6.03;;;3.25;;
66856;SDS011;53766;50.280;19.160;2023-05-29T13:16:47;6.80;;;3.40;;
66856;SDS011;53766;50.280;19.160;2023-05-29T13:19:15;7.00;;;3.25;;
66856;SDS011;53766;50.280;19.160;2023-05-29T13:21:42;6.47;;;3.25;;
66856;SDS011;53766;50.280;19.160;2023-05-29T13:24:15;9.68;;;3.70;;
66856;SDS011;53766;50.280;19.160;2023-05-29T13:26:43;6.85;;;3.45;;
66856;SDS011;53766;50.280;19.160;2023-05-29T13:29:10;4.43;;;3.00;;
66856;SDS011;53766;50.280;19.160;2023-05-29T13:31:37;5.13;;;3.10;;
66856;SDS011;53766;50.280;19.160;2023-05-29T13:34:05;6.55;;;3.05;;
66856;SDS011;53766;50.280;19.160;2023-05-29T13:36:32;6.22;;;3.50;;
66856;SDS011;53766;50.280;19.160;2023-05-29T13:39:00;6.75;;;3.30;;
66856;SDS011;53766;50.280;19.160;2023-05-29T13:41:28;8.13;;;3.38;;
66856;SDS011;53766;50.280;19.160;2023-05-29T13:43:55;5.18;;;2.97;;
66856;SDS011;53766;50.280;19.160;2023-05-29T13:46:22;6.20;;;3.20;;
66856;SDS011;53766;50.280;19.160;2023-05-29T13:48:50;11.27;;;3.50;;
66856;SDS011;53766;50.280;19.160;2023-05-29T13:51:18;6.72;;;3.47;;
66856;SDS011;53766;50.280;19.160;2023-05-29T13:53:45;6.13;;;3.65;;
66856;SDS011;53766;50.280;19.160;2023-05-29T13:56:12;5.15;;;3.00;;
66856;SDS011;53766;50.280;19.160;2023-05-29T13:58:40;5.50;;;3.30;;
66856;SDS011;53766;50.280;19.160;2023-05-29T14:01:07;5.85;;;3.35;;
66856;SDS011;53766;50.280;19.160;2023-05-29T14:03:35;6.22;;;3.40;;
66856;SDS011;53766;50.280;19.160;2023-05-29T14:06:03;6.05;;;3.22;;
66856;SDS011;53766;50.280;19.160;2023-05-29T14:08:32;8.15;;;3.50;;
66856;SDS011;53766;50.280;19.160;2023-05-29T14:10:59;5.10;;;3.17;;
66856;SDS011;53766;50.280;19.160;2023-05-29T14:13:27;5.53;;;2.90;;
66856;SDS011;53766;50.280;19.160;2023-05-29T14:15:54;6.45;;;3.22;;
66856;SDS011;53766;50.280;19.160;2023-05-29T14:18:24;4.57;;;2.90;;
66856;SDS011;53766;50.280;19.160;2023-05-29T14:20:51;5.63;;;3.00;;
66856;SDS011;53766;50.280;19.160;2023-05-29T14:23:19;6.90;;;3.42;;
66856;SDS011;53766;50.280;19.160;2023-05-29T14:25:46;6.45;;;2.95;;
66856;SDS011;53766;50.280;19.160;2023-05-29T14:28:14;5.70;;;2.95;;
66856;SDS011;53766;50.280;19.160;2023-05-29T14:30:41;5.93;;;3.03;;
66856;SDS011;53766;50.280;19.160;2023-05-29T14:33:09;7.97;;;3.10;;
66856;SDS011;53766;50.280;19.160;2023-05-29T14:35:36;7.07;;;3.05;;
66856;SDS011;53766;50.280;19.160;2023-05-29T14:38:04;4.72;;;3.08;;
66856;SDS011;53766;50.280;19.160;2023-05-29T14:40:31;4.32;;;3.03;;
66856;SDS011;53766;50.280;19.160;2023-05-29T14:43:01;6.60;;;3.40;;
66856;SDS011;53766;50.280;19.160;2023-05-29T14:45:28;4.60;;;2.83;;
66856;SDS011;53766;50.280;19.160;2023-05-29T14:47:57;5.25;;;3.40;;
66856;SDS011;53766;50.280;19.160;2023-05-29T14:50:24;6.82;;;3.47;;
66856;SDS011;53766;50.280;19.160;2023-05-29T14:52:52;5.13;;;3.25;;
66856;SDS011;53766;50.280;19.160;2023-05-29T14:55:20;5.45;;;3.17;;
66856;SDS011;53766;50.280;19.160;2023-05-29T14:57:51;5.13;;;3.15;;
66856;SDS011;53766;50.280;19.160;2023-05-29T15:00:18;5.30;;;3.05;;
66856;SDS011;53766;50.280;19.160;2023-05-29T15:02:46;7.22;;;3.00;;
66856;SDS011;53766;50.280;19.160;2023-05-29T15:05:14;4.53;;;2.78;;
66856;SDS011;53766;50.280;19.160;2023-05-29T15:07:42;5.85;;;3.15;;
66856;SDS011;53766;50.280;19.160;2023-05-29T15:10:09;7.00;;;3.33;;
66856;SDS011;53766;50.280;19.160;2023-05-29T15:12:37;7.03;;;3.15;;
66856;SDS011;53766;50.280;19.160;2023-05-29T15:15:05;6.60;;;3.42;;
66856;SDS011;53766;50.280;19.160;2023-05-29T15:17:33;4.43;;;3.10;;